createdAt,value
2019-01-25T04:28:59.882Z,37.20
2019-01-25T04:34:23.953Z,38.07
2019-01-25T04:40:56.091Z,38.80
2019-01-25T04:46:25.502Z,38.10
2019-01-25T05:03:08.930Z,41.47
2019-01-25T05:08:35.413Z,39.50
2019-01-25T05:13:59.086Z,38.67
2019-01-25T05:19:23.095Z,38.87
2019-01-25T05:24:46.719Z,39.20
2019-01-25T05:30:18.953Z,39.37
2019-01-25T05:35:59.072Z,38.60
2019-01-25T05:41:28.277Z,41.23
2019-01-25T05:46:50.100Z,40.33
2019-01-25T05:52:18.483Z,40.63
2019-01-25T05:57:43.826Z,40.03
2019-01-25T06:03:10.373Z,41.87
2019-01-25T06:08:35.709Z,41.10
2019-01-25T06:19:37.171Z,39.53
2019-01-25T06:25:01.126Z,41.23
2019-01-25T06:30:24.735Z,38.23
2019-01-25T06:35:49.970Z,40.73
2019-01-25T06:41:54.606Z,39.97
2019-01-25T07:06:06.951Z,37.97
2019-01-25T07:11:31.024Z,37.40
2019-01-25T07:16:55.454Z,37.93
2019-01-25T07:22:20.315Z,38.57
2019-01-25T07:27:45.227Z,39.77
2019-01-25T07:33:08.935Z,40.33
2019-01-25T07:38:33.777Z,32.10
2019-01-25T07:43:58.236Z,30.80
2019-01-25T07:49:22.589Z,30.97
2019-01-25T07:54:47.307Z,31.90
2019-01-25T08:00:11.886Z,30.63
2019-01-25T08:05:36.337Z,32.20
2019-01-25T08:11:00.519Z,33.40
2019-01-25T08:16:26.419Z,34.67
2019-01-25T08:21:50.717Z,33.27
2019-01-25T08:27:15.165Z,31.97
2019-01-25T08:32:39.715Z,30.70
2019-01-25T08:38:06.388Z,31.83
2019-01-25T08:43:30.399Z,27.60
2019-01-25T08:48:55.115Z,27.23
2019-01-25T08:54:19.503Z,27.97
2019-01-25T08:59:45.687Z,25.07
2019-01-25T09:05:10.848Z,26.53
2019-01-25T09:10:34.945Z,29.23
2019-01-25T09:15:59.438Z,29.57
2019-01-25T09:21:24.122Z,30.63
2019-01-25T09:26:48.949Z,33.57
2019-01-25T09:32:13.191Z,34.77
2019-01-25T09:37:37.831Z,35.23
2019-01-25T09:43:01.731Z,34.47
2019-01-25T09:48:26.203Z,35.23
2019-01-25T09:53:50.399Z,36.53
2019-01-25T09:59:13.939Z,35.50
2019-01-25T10:04:38.430Z,37.90
2019-01-25T10:10:02.014Z,36.60
2019-01-25T10:15:27.199Z,36.43
2019-01-25T10:20:50.739Z,35.70
2019-01-25T10:26:14.935Z,36.27
2019-01-25T10:31:39.851Z,35.17
2019-01-25T10:37:04.814Z,32.63
2019-01-25T10:42:28.712Z,32.37
2019-01-25T10:47:53.200Z,30.53
2019-01-25T10:53:17.728Z,30.07
2019-01-25T10:58:41.498Z,28.83
2019-01-25T11:04:11.393Z,30.73
2019-01-25T11:09:31.935Z,33.93
2019-01-25T11:14:56.126Z,33.00
2019-01-25T11:20:23.478Z,34.10
2019-01-25T11:25:48.767Z,38.43
2019-01-25T11:31:13.371Z,35.50
2019-01-25T11:36:37.771Z,36.57
2019-01-25T11:42:02.223Z,37.60
2019-01-25T11:47:26.735Z,37.97
2019-01-25T11:52:50.971Z,37.23
2019-01-25T11:58:15.179Z,38.67
2019-01-25T12:03:39.451Z,40.20
2019-01-25T12:09:05.071Z,38.30
2019-01-25T12:14:29.838Z,38.93
2019-01-25T12:19:54.487Z,36.30
2019-01-25T12:25:18.894Z,33.90
2019-01-25T12:30:43.223Z,35.30
2019-01-25T12:36:07.194Z,34.53
2019-01-25T12:41:31.674Z,35.43
2019-01-25T12:46:55.412Z,36.70
2019-01-25T12:52:18.976Z,37.43
2019-01-25T12:57:43.315Z,39.60
2019-01-25T13:03:08.633Z,39.73
2019-01-25T13:08:33.020Z,39.13
2019-01-25T13:13:58.048Z,40.37
2019-01-25T13:19:24.423Z,42.27
2019-01-25T13:24:48.654Z,41.63
2019-01-25T13:30:19.379Z,43.07
2019-01-25T13:35:44.421Z,44.40
2019-01-25T13:41:09.314Z,42.33
2019-01-25T13:46:34.071Z,42.73
2019-01-25T13:51:58.926Z,41.87
2019-01-25T13:57:23.714Z,40.97
2019-01-25T14:02:48.395Z,40.37
2019-01-25T14:08:13.299Z,40.00
2019-01-25T14:13:37.699Z,40.07
2019-01-25T14:19:01.755Z,39.43
2019-01-25T14:24:26.087Z,37.93
2019-01-25T14:29:50.955Z,38.23
2019-01-25T14:35:15.411Z,38.73
2019-01-25T14:40:39.016Z,38.00
2019-01-25T14:46:03.912Z,38.17
2019-01-25T14:51:28.066Z,34.90
2019-01-25T14:56:51.836Z,39.23
2019-01-25T15:02:16.560Z,38.30
2019-01-25T15:07:40.623Z,37.57
2019-01-25T15:13:07.035Z,38.67
2019-01-25T15:18:31.638Z,37.67
2019-01-25T15:23:56.153Z,37.73
2019-01-25T15:29:20.597Z,37.67
2019-01-25T15:34:44.471Z,36.03
2019-01-25T15:40:10.191Z,34.57
2019-01-25T15:45:34.732Z,33.90
2019-01-25T15:50:58.976Z,33.00
2019-01-25T15:56:23.479Z,31.33
2019-01-25T16:01:47.143Z,31.17
2019-01-25T16:07:11.831Z,29.33
2019-01-25T16:12:35.654Z,29.73
2019-01-25T16:18:00.205Z,31.40
2019-01-25T16:23:24.621Z,31.90
2019-01-25T16:28:48.128Z,31.27
2019-01-25T16:34:12.410Z,29.20
2019-01-25T16:39:37.678Z,28.97
2019-01-25T16:45:02.134Z,28.80
2019-01-25T16:50:26.806Z,27.60
2019-01-25T16:55:52.062Z,27.93
2019-01-25T17:01:16.336Z,26.37
2019-01-25T17:06:40.750Z,26.50
2019-01-25T17:12:05.235Z,27.80
2019-01-25T17:17:29.950Z,27.07
2019-01-25T17:22:54.470Z,27.83
2019-01-25T17:28:21.437Z,28.03
2019-01-25T17:33:46.226Z,26.73
2019-01-25T17:39:14.996Z,27.97
2019-01-25T17:44:41.387Z,28.67
2019-01-25T17:50:07.642Z,30.43
2019-01-25T17:55:31.411Z,32.47
2019-01-25T18:00:56.346Z,34.47
2019-01-25T18:06:22.218Z,35.20
2019-01-25T18:11:47.062Z,36.17
2019-01-25T18:17:15.123Z,36.07
2019-01-25T18:22:40.629Z,40.07
2019-01-25T18:28:07.792Z,41.47
2019-01-25T18:33:32.010Z,41.70
2019-01-25T18:38:57.093Z,43.20
2019-01-25T18:44:21.256Z,45.17
2019-01-25T18:49:45.203Z,45.87
2019-01-25T18:54:52.139Z,43.17
2019-01-25T18:59:58.274Z,46.77
2019-01-25T19:05:04.267Z,45.03
2019-01-25T19:10:13.419Z,46.40
2019-01-25T19:15:21.866Z,44.23
2019-01-25T19:20:27.836Z,42.00
2019-01-25T19:25:34.635Z,44.13
2019-01-25T19:30:42.632Z,41.70
2019-01-25T19:35:49.847Z,42.17
2019-01-25T19:40:55.667Z,40.93
2019-01-25T19:46:01.627Z,39.77
2019-01-25T19:51:07.575Z,39.13
2019-01-25T19:56:13.568Z,38.43
2019-01-25T20:01:19.985Z,37.47
2019-01-25T20:06:26.187Z,34.70
2019-01-25T20:11:32.419Z,32.90
2019-01-25T20:16:40.062Z,30.90
2019-01-25T20:21:46.049Z,28.10
2019-01-25T20:26:52.489Z,26.50
2019-01-25T20:31:58.620Z,25.70
2019-01-25T20:37:04.603Z,23.13
2019-01-25T20:42:10.693Z,23.90
2019-01-25T20:47:16.661Z,21.93
2019-01-25T20:52:22.532Z,20.50
2019-01-25T20:57:29.802Z,19.83
2019-01-25T21:02:35.817Z,19.47
2019-01-25T21:07:42.219Z,16.63
2019-01-25T21:12:48.248Z,15.50
2019-01-25T21:17:54.395Z,15.23
2019-01-25T21:23:01.734Z,15.13
2019-01-25T21:28:07.755Z,13.77
2019-01-25T21:33:13.783Z,13.83
2019-01-25T21:38:19.818Z,14.03
2019-01-25T21:43:26.112Z,12.17
2019-01-25T21:48:32.016Z,12.23
2019-01-25T21:53:38.799Z,12.67
2019-01-25T21:58:45.051Z,11.50
2019-01-25T22:03:54.208Z,12.17
2019-01-25T22:09:02.765Z,11.83
2019-01-25T22:14:09.750Z,11.23
2019-01-25T22:19:15.830Z,11.23
2019-01-25T22:24:23.143Z,10.97
2019-01-25T22:29:31.162Z,10.43
2019-01-25T22:34:38.868Z,10.63
2019-01-25T22:39:45.566Z,10.40
2019-01-25T22:44:51.987Z,10.03
2019-01-25T22:49:59.135Z,8.70
2019-01-25T22:55:07.123Z,9.57
2019-01-25T23:00:47.219Z,8.90
2019-01-25T23:06:17.828Z,9.27
2019-01-25T23:11:23.879Z,9.20
2019-01-25T23:16:30.139Z,8.77
2019-01-25T23:21:36.350Z,9.13
2019-01-25T23:26:42.818Z,9.17
2019-01-25T23:31:48.747Z,10.00
2019-01-25T23:36:54.715Z,10.13
2019-01-25T23:42:00.788Z,10.00
2019-01-25T23:47:06.970Z,10.57
2019-01-25T23:52:13.338Z,11.10
2019-01-25T23:57:19.507Z,11.13
